Flight Track Log - Related Links

Times and Time Zones

All times are in EDT time to prevent confusion due to time zone crossing. See the SWA3675 flight status page for this flight to view local times or setup timezone preferences in your user account.

Time Position Orientation Groundspeed Altitude Reporting Facility
EDT Latitude Longitude Course Direction KTS MPH feet Rate Location/Type
Sun 07:54:20 PM 39.1500 -76.6500 142° Southeast 156 180 2,000  Level Potomac TRACON
Sun 07:55:20 PM 39.1000 -76.6000 142° Southeast 189 217 4,600 2,714 Climbing Potomac TRACON
Sun 07:56:26 PM 39.0500 -76.5500 142° Southeast 227 261 7,700 2,950 Climbing Potomac TRACON
Sun 07:57:20 PM 38.9833 -76.5333 169° South 280 322 10,500 2,947 Climbing Potomac TRACON
Sun 07:58:20 PM 38.9000 -76.5167 171° South 329 379 13,300 1,313 Climbing Potomac TRACON
Sun 08:00:00 PM 38.7533 -76.5367 186° South 323 372 14,000 261 Climbing Washington Center
Sun 08:01:01 PM 38.6839 -76.6075 219° Southwest 309 356 14,000  Level Washington Center
Sun 08:02:02 PM 38.6125 -76.6758 217° Southwest 314 361 14,000  Level Washington Center
Sun 08:03:02 PM 38.5347 -76.7278 208° Southwest 320 368 14,000  Level Washington Center
Sun 08:04:02 PM 38.4392 -76.7131 173° South 317 365 14,000  Level Washington Center
Sun 08:05:00 PM 38.3475 -76.7036 175° South 323 372 14,000  Level Washington Center
Sun 08:06:03 PM 38.2683 -76.6867 170° South 329 379 14,000  Level Washington Center
Sun 08:07:00 PM 38.1789 -76.6508 163° South 329 379 14,000  Level Washington Center
Sun 08:08:00 PM 38.0917 -76.6050 158° South 340 391 14,000  Level Washington Center
Sun 08:09:01 PM 38.0067 -76.5564 156° South 345 397 14,000 53 Level Washington Center
Sun 08:09:54 PM 37.9256 -76.5131 157° South 336 387 14,100 59 Climbing Washington Center
Sun 08:10:42 PM 37.8550 -76.4781 159° South 336 387 14,100 -91 Level Washington Center
Sun 08:11:00 PM 37.8342 -76.4594 145° Southeast 340 391 14,000 -300 Descending Washington Center
Sun 08:11:42 PM 37.7697 -76.4297 160° South 337 388 13,800 -600 Descending Washington Center
Sun 08:12:00 PM 37.7511 -76.4139 146° Southeast 334 384 13,400 -1,574 Descending Washington Center
Sun 08:12:43 PM 37.6889 -76.3869 161° South 314 361 12,200 -1,672 Descending Washington Center
Sun 08:13:01 PM 37.6700 -76.3736 151° Southeast 324 373 11,700 -1,343 Descending Washington Center
Sun 08:13:50 PM 37.5950 -76.3572 170° South 301 346 10,700 -1,190 Descending Washington Center
Sun 08:15:02 PM 37.5119 -76.3250 163° South 301 346 9,300 -1,100 Descending Washington Center
Sun 08:15:50 PM 37.4431 -76.3189 176° South 262 302 8,500 -1,046 Descending Washington Center
Sun 08:16:51 PM 37.3700 -76.3131 176° South 261 300 7,400 -1,131 Descending Washington Center
Sun 08:17:52 PM 37.2992 -76.3072 176° South 250 288 6,200 -1,160 Descending Washington Center
Sun 08:18:50 PM 37.2303 -76.3067 180° South 247 284 5,100 -1,160 Descending Washington Center
Sun 08:19:51 PM 37.1658 -76.3033 178° South 241 277 3,900 -968 Descending Washington Center
Sun 08:20:54 PM 37.0989 -76.3003 178° South 241 277 3,100 -397 Descending Washington Center
Sun 08:21:52 PM 37.0281 -76.2994 179° South 233 268 3,100  Level Washington Center
Sun 08:22:53 PM 36.9614 -76.3014 181° South 236 272 3,100  Level Washington Center

Login

Don't have an account? Register now (free) for customized features, flight alerts, and more!